地図

経路データ

SID SEASON NUMBER BASIN SUBBASIN NAME ISO_TIME NATURE LAT LON WMO_WIND WMO_PRES WMO_AGENCY TRACK_TYPE DIST2LAND LANDFALL IFLAG USA_AGENCY USA_ATCF_ID USA_LAT USA_LON USA_RECORD USA_STATUS USA_WIND USA_PRES USA_SSHS USA_R34_NE USA_R34_SE USA_R34_SW USA_R34_NW USA_R50_NE USA_R50_SE USA_R50_SW USA_R50_NW USA_R64_NE USA_R64_SE USA_R64_SW USA_R64_NW USA_POCI USA_ROCI USA_RMW USA_EYE TOKYO_LAT TOKYO_LON TOKYO_GRADE TOKYO_WIND TOKYO_PRES TOKYO_R50_DIR TOKYO_R50_LONG TOKYO_R50_SHORT TOKYO_R30_DIR TOKYO_R30_LONG TOKYO_R30_SHORT TOKYO_LAND CMA_LAT CMA_LON CMA_CAT CMA_WIND CMA_PRES HKO_LAT HKO_LON HKO_CAT HKO_WIND HKO_PRES NEWDELHI_LAT NEWDELHI_LON NEWDELHI_GRADE NEWDELHI_WIND NEWDELHI_PRES NEWDELHI_CI NEWDELHI_DP NEWDELHI_POCI REUNION_LAT REUNION_LON REUNION_TYPE REUNION_WIND REUNION_PRES REUNION_TNUM REUNION_CI REUNION_RMW REUNION_R34_NE REUNION_R34_SE REUNION_R34_SW REUNION_R34_NW REUNION_R50_NE REUNION_R50_SE REUNION_R50_SW REUNION_R50_NW REUNION_R64_NE REUNION_R64_SE REUNION_R64_SW REUNION_R64_NW BOM_LAT BOM_LON BOM_TYPE BOM_WIND BOM_PRES BOM_TNUM BOM_CI BOM_RMW BOM_R34_NE BOM_R34_SE BOM_R34_SW BOM_R34_NW BOM_R50_NE BOM_R50_SE BOM_R50_SW BOM_R50_NW BOM_R64_NE BOM_R64_SE BOM_R64_SW BOM_R64_NW BOM_ROCI BOM_POCI BOM_EYE BOM_POS_METHOD BOM_PRES_METHOD NADI_LAT NADI_LON NADI_CAT NADI_WIND NADI_PRES WELLINGTON_LAT WELLINGTON_LON WELLINGTON_WIND WELLINGTON_PRES DS824_LAT DS824_LON DS824_STAGE DS824_WIND DS824_PRES TD9636_LAT TD9636_LON TD9636_STAGE TD9636_WIND TD9636_PRES TD9635_LAT TD9635_LON TD9635_WIND TD9635_PRES TD9635_ROCI NEUMANN_LAT NEUMANN_LON NEUMANN_CLASS NEUMANN_WIND NEUMANN_PRES MLC_LAT MLC_LON MLC_CLASS MLC_WIND MLC_PRES USA_GUST BOM_GUST BOM_GUST_PER REUNION_GUST REUNION_GUST_PER USA_SEAHGT USA_SEARAD_NE USA_SEARAD_SE USA_SEARAD_SW USA_SEARAD_NW STORM_SPEED STORM_DIR
1900040S21051 1900 3 SI MM NOT_NAMED 1900-02-09 00:00:00 TS -20.9000 51.1000 main 259 259 _________O____ -1 -20.9000 51.1000 TC 8 148
1900040S21051 1900 3 SI MM NOT_NAMED 1900-02-09 03:00:00 TS -21.2575 51.3398 main 296 296 _________P____ -1 -21.2575 51.3398 TC 8 146
1900040S21051 1900 3 SI MM NOT_NAMED 1900-02-09 06:00:00 TS -21.6000 51.6000 main 338 338 _________O____ -1 -21.6000 51.6000 TC 8 142
1900040S21051 1900 3 SI MM NOT_NAMED 1900-02-09 09:00:00 TS -21.9150 51.8926 main 352 333 _________P____ -1 -21.9150 51.8926 TC 8 137
1900040S21051 1900 3 SI MM NOT_NAMED 1900-02-09 12:00:00 TS -22.2000 52.2000 main 333 313 _________O____ -1 -22.2000 52.2000 TC 8 134
1900040S21051 1900 3 SI MM NOT_NAMED 1900-02-09 15:00:00 TS -22.4574 52.5002 main 318 301 _________P____ -1 -22.4574 52.5002 TC 7 132
1900040S21051 1900 3 SI MM NOT_NAMED 1900-02-09 18:00:00 TS -22.7000 52.8000 main 301 288 _________O____ -1 -22.7000 52.8000 TC 7 131
1900040S21051 1900 3 SI MM NOT_NAMED 1900-02-09 21:00:00 TS -22.9424 53.1002 main 288 287 _________P____ -1 -22.9424 53.1002 TC 7 132
1900040S21051 1900 3 SI MM NOT_NAMED 1900-02-10 00:00:00 TS -23.2000 53.4000 main 288 288 _________O____ -1 -23.2000 53.4000 TC 8 135
1900040S21051 1900 3 SI MM NOT_NAMED 1900-02-10 03:00:00 TS -23.4924 53.6926 main 295 295 _________P____ -1 -23.4924 53.6926 TC 8 138
1900040S21051 1900 3 SI MM NOT_NAMED 1900-02-10 06:00:00 TS -23.8000 54.0000 main 309 309 _________O____ -1 -23.8000 54.0000 TC 9 136
1900040S21051 1900 3 SI MM NOT_NAMED 1900-02-10 09:00:00 TS -24.1000 54.3426 main 329 325 _________P____ -1 -24.1000 54.3426 TC 9 133
1900040S21051 1900 3 SI MM NOT_NAMED 1900-02-10 12:00:00 TS -24.4000 54.7000 main 347 345 _________O____ -1 -24.4000 54.7000 TC 9 133
1900040S21051 1900 3 SI MM NOT_NAMED 1900-02-10 15:00:00 TS -24.6999 55.0502 main 372 372 _________P____ -1 -24.6999 55.0502 TC 9 133
1900040S21051 1900 3 SI MM NOT_NAMED 1900-02-10 18:00:00 TS -25.0000 55.4000 main 402 402 _________O____ -1 -25.0000 55.4000 TC 9 133
1900040S21051 1900 3 SI MM NOT_NAMED 1900-02-10 21:00:00 TS -25.2999 55.7502 main 436 436 _________P____ -1 -25.2999 55.7502 TC 9 133
1900040S21051 1900 3 SI MM NOT_NAMED 1900-02-11 00:00:00 TS -25.6000 56.1000 main 472 472 _________O____ -1 -25.6000 56.1000 TC 9 134
1900040S21051 1900 3 SI MM NOT_NAMED 1900-02-11 03:00:00 TS -25.9074 56.4427 main 509 509 _________P____ -1 -25.9074 56.4427 TC 9 134
1900040S21051 1900 3 SI MM NOT_NAMED 1900-02-11 06:00:00 TS -26.2000 56.8000 main 550 550 _________O____ -1 -26.2000 56.8000 TC 9 129
1900040S21051 1900 3 SI MM NOT_NAMED 1900-02-11 09:00:00 TS -26.4499 57.1928 main 581 581 _________P____ -1 -26.4499 57.1928 TC 9 125
1900040S21051 1900 3 SI MM NOT_NAMED 1900-02-11 12:00:00 TS -26.7000 57.6000 main 626 626 _________O____ -1 -26.7000 57.6000 TC 9 127
1900040S21051 1900 3 SI MM NOT_NAMED 1900-02-11 15:00:00 TS -26.9999 58.0001 main 671 671 _________P____ -1 -26.9999 58.0001 TC 9 130
1900040S21051 1900 3 SI MM NOT_NAMED 1900-02-11 18:00:00 TS -27.3000 58.4000 main 717 717 _________O____ -1 -27.3000 58.4000 TC 9 128
1900040S21051 1900 3 SI MM NOT_NAMED 1900-02-11 21:00:00 TS -27.5627 58.7998 main 764 764 _________P____ -1 -27.5627 58.7998 TC 9 125
1900040S21051 1900 3 SI MM NOT_NAMED 1900-02-12 00:00:00 TS -27.8000 59.2000 main 802 _________O____ -1 -27.8000 59.2000 TC 9 124

IBTrACS Databaseについて

本データベースは、米国NOAAが公開する1842年以降の世界の熱帯低気圧のベストトラックデータアーカイブInternational Best Track Archive for Climate Stewardship (IBTrACS)を、ウェブで閲覧しやすい形式に変換したものです。

最終更新日:2021-12-08